createdAt,value
2018-06-13T00:02:05.775Z,59.00
2018-06-13T00:04:34.337Z,59.00
2018-06-13T00:14:27.633Z,59.20
2018-06-13T00:16:56.134Z,59.30
2018-06-13T00:19:24.712Z,59.30
2018-06-13T00:21:53.251Z,59.30
2018-06-13T00:24:21.771Z,59.30
2018-06-13T00:26:50.271Z,59.40
2018-06-13T00:29:18.803Z,59.50
2018-06-13T00:31:47.376Z,59.50
2018-06-13T00:36:44.257Z,59.60
2018-06-13T00:39:12.782Z,59.50
2018-06-13T00:41:41.391Z,59.50
2018-06-13T00:44:09.913Z,59.60
2018-06-13T00:49:06.564Z,59.70
2018-06-13T00:51:35.093Z,59.80
2018-06-13T00:54:03.655Z,60.00
2018-06-13T00:56:32.325Z,60.20
2018-06-13T00:59:00.826Z,60.20
2018-06-13T01:01:30.134Z,60.30
2018-06-13T01:03:58.656Z,60.20
2018-06-13T01:06:28.121Z,60.10
2018-06-13T01:08:56.622Z,60.10
2018-06-13T01:11:25.191Z,60.10
2018-06-13T01:16:21.904Z,59.80
2018-06-13T01:18:50.392Z,60.40
2018-06-13T01:21:21.084Z,60.60
2018-06-13T01:23:49.681Z,60.50
2018-06-13T01:26:19.444Z,60.60
2018-06-13T01:28:47.916Z,60.70
2018-06-13T01:31:16.418Z,61.00
2018-06-13T01:33:44.969Z,60.90
2018-06-13T01:36:13.467Z,61.10
2018-06-13T01:38:42.024Z,61.10
2018-06-13T01:43:38.707Z,60.90
2018-06-13T01:46:07.159Z,60.90
2018-06-13T01:48:35.583Z,60.80
2018-06-13T01:51:04.052Z,60.80
2018-06-13T01:56:00.619Z,61.00
2018-06-13T01:58:29.081Z,60.90
2018-06-13T02:00:57.520Z,61.10
2018-06-13T02:03:25.967Z,61.00
2018-06-13T02:05:54.443Z,61.20
2018-06-13T02:10:51.103Z,63.00
2018-06-13T02:13:19.551Z,62.80
2018-06-13T02:15:48.041Z,62.70
2018-06-13T02:18:16.465Z,62.50
2018-06-13T02:20:44.938Z,62.50
2018-06-13T02:25:41.523Z,62.40
2018-06-13T02:28:10.209Z,62.30
2018-06-13T02:30:38.667Z,62.40
2018-06-13T02:35:35.334Z,63.20
2018-06-13T02:38:04.347Z,62.50
2018-06-13T02:43:00.906Z,62.80
2018-06-13T02:45:29.365Z,62.70
2018-06-13T02:47:57.832Z,62.90
2018-06-13T02:50:26.267Z,63.00
2018-06-13T02:52:54.729Z,63.00
2018-06-13T02:55:23.169Z,63.00
2018-06-13T02:57:51.622Z,63.10
2018-06-13T03:03:08.283Z,62.90
2018-06-13T03:05:36.819Z,63.50
2018-06-13T03:08:05.335Z,63.40
2018-06-13T03:10:33.820Z,63.40
2018-06-13T03:13:02.262Z,63.80
2018-06-13T03:15:30.794Z,63.60
2018-06-13T03:17:59.242Z,63.60
2018-06-13T03:20:27.692Z,63.60
2018-06-13T03:22:56.189Z,63.50
2018-06-13T03:25:24.708Z,63.50
2018-06-13T03:27:53.184Z,63.50
2018-06-13T03:30:21.686Z,63.60
2018-06-13T03:32:50.556Z,63.60
2018-06-13T03:35:19.054Z,63.70
2018-06-13T03:37:47.558Z,63.60
2018-06-13T03:40:16.026Z,63.60
2018-06-13T03:42:44.510Z,64.30
2018-06-13T03:45:12.991Z,63.60
2018-06-13T03:47:41.481Z,63.70
2018-06-13T03:50:11.338Z,63.70
2018-06-13T03:52:40.177Z,63.70
2018-06-13T03:55:08.666Z,63.80
2018-06-13T03:57:37.146Z,63.80
2018-06-13T04:00:05.713Z,63.70
2018-06-13T04:02:34.144Z,63.60
2018-06-13T04:05:02.595Z,63.60
2018-06-13T04:07:31.169Z,63.70
2018-06-13T04:09:59.692Z,63.70
2018-06-13T04:12:28.160Z,63.70
2018-06-13T04:14:56.601Z,63.70
2018-06-13T04:17:25.046Z,63.70
2018-06-13T04:19:53.549Z,63.80
2018-06-13T04:22:22.062Z,63.80
2018-06-13T04:24:50.454Z,63.80
2018-06-13T04:27:18.929Z,63.80
2018-06-13T04:29:47.410Z,63.80
2018-06-13T04:32:15.947Z,63.80
2018-06-13T04:34:44.430Z,63.80
2018-06-13T04:37:12.904Z,63.70
2018-06-13T04:39:41.375Z,63.80
2018-06-13T04:42:09.862Z,63.70
2018-06-13T04:44:38.290Z,63.70
2018-06-13T04:47:06.761Z,63.60
2018-06-13T04:49:35.193Z,63.50
2018-06-13T04:52:03.678Z,63.60
2018-06-13T04:54:32.136Z,63.50
2018-06-13T04:57:00.650Z,63.50
2018-06-13T04:59:29.277Z,63.40
2018-06-13T05:01:57.739Z,63.50
2018-06-13T05:04:26.229Z,63.40
2018-06-13T05:06:54.722Z,63.30
2018-06-13T05:09:23.211Z,63.30
2018-06-13T05:11:51.669Z,63.30
2018-06-13T05:14:20.135Z,64.00
2018-06-13T05:16:49.020Z,63.20
2018-06-13T05:19:17.912Z,63.10
2018-06-13T05:21:46.363Z,63.00
2018-06-13T05:24:14.842Z,63.00
2018-06-13T05:26:43.349Z,62.90
2018-06-13T05:29:11.835Z,62.90
2018-06-13T05:31:40.342Z,62.80
2018-06-13T05:34:08.805Z,62.80
2018-06-13T05:36:37.278Z,62.90
2018-06-13T05:39:07.700Z,62.80
2018-06-13T05:41:36.250Z,63.60
2018-06-13T05:44:04.692Z,62.90
2018-06-13T05:46:33.139Z,62.90
2018-06-13T05:49:01.602Z,62.90
2018-06-13T05:51:30.048Z,62.90
2018-06-13T05:53:58.553Z,62.90
2018-06-13T05:56:26.971Z,62.90
2018-06-13T05:58:55.414Z,62.90
2018-06-13T06:01:23.875Z,62.90
2018-06-13T06:03:52.302Z,63.00
2018-06-13T06:06:20.768Z,63.00
2018-06-13T06:08:49.191Z,63.00
2018-06-13T06:11:17.645Z,62.90
2018-06-13T06:13:46.065Z,62.80
2018-06-13T06:16:14.492Z,62.50
2018-06-13T06:18:42.925Z,62.50
2018-06-13T06:21:11.406Z,62.50
2018-06-13T06:23:39.883Z,62.30
2018-06-13T06:26:08.415Z,62.30
2018-06-13T06:28:36.900Z,62.30
2018-06-13T06:31:05.362Z,63.00
2018-06-13T06:36:02.807Z,62.10
2018-06-13T06:38:31.283Z,62.20
2018-06-13T06:40:59.732Z,62.00
2018-06-13T06:43:28.323Z,61.80
2018-06-13T06:45:56.775Z,61.70
2018-06-13T06:48:25.166Z,61.50
2018-06-13T06:50:53.633Z,61.50
2018-06-13T06:53:22.059Z,61.50
2018-06-13T06:55:50.520Z,61.40
2018-06-13T06:58:18.999Z,61.30
2018-06-13T07:00:47.415Z,61.10
2018-06-13T07:03:15.862Z,61.10
2018-06-13T07:05:44.376Z,60.90
2018-06-13T07:08:12.874Z,60.80
2018-06-13T07:10:41.335Z,60.70
2018-06-13T07:13:09.850Z,60.70
2018-06-13T07:15:38.307Z,60.50
2018-06-13T07:18:06.818Z,60.60
2018-06-13T07:20:35.253Z,60.60
2018-06-13T07:23:03.702Z,60.60
2018-06-13T07:25:32.132Z,60.40
2018-06-13T07:28:00.614Z,60.30
2018-06-13T07:30:29.105Z,60.10
2018-06-13T07:32:57.925Z,60.10
2018-06-13T07:35:26.606Z,60.00
2018-06-13T07:37:55.031Z,60.00
2018-06-13T07:40:23.506Z,60.20
2018-06-13T07:42:52.022Z,60.00
2018-06-13T07:45:20.531Z,60.00
2018-06-13T07:47:49.015Z,60.00
2018-06-13T07:50:17.515Z,60.00
2018-06-13T07:52:45.987Z,60.00
2018-06-13T07:55:14.517Z,60.10
2018-06-13T07:57:43.028Z,60.10
2018-06-13T08:00:11.574Z,60.00
2018-06-13T08:02:40.083Z,59.80
2018-06-13T08:05:08.595Z,59.70
2018-06-13T08:07:37.075Z,59.60
2018-06-13T08:10:05.653Z,59.50
2018-06-13T08:12:34.122Z,59.60
2018-06-13T08:15:02.580Z,59.60
2018-06-13T08:17:31.007Z,59.50
2018-06-13T08:19:59.454Z,59.50
2018-06-13T08:22:27.897Z,59.50
2018-06-13T08:24:56.379Z,59.60
2018-06-13T08:27:24.941Z,59.50
2018-06-13T08:29:53.408Z,59.50
2018-06-13T08:32:21.898Z,59.50
2018-06-13T08:34:50.622Z,59.60
2018-06-13T08:37:19.063Z,59.50
2018-06-13T08:39:47.543Z,59.60
2018-06-13T08:42:16.007Z,59.60
2018-06-13T08:44:44.414Z,59.50
2018-06-13T08:47:12.904Z,59.50
2018-06-13T08:49:41.414Z,59.50
2018-06-13T08:52:09.957Z,59.30
2018-06-13T08:54:38.392Z,59.10
2018-06-13T08:57:06.878Z,58.80
2018-06-13T08:59:35.337Z,58.90
2018-06-13T09:02:03.808Z,59.00
2018-06-13T09:04:32.279Z,58.80
2018-06-13T09:07:00.864Z,58.70
2018-06-13T09:09:29.289Z,58.50
2018-06-13T09:11:57.772Z,58.40
2018-06-13T09:14:26.223Z,58.30
2018-06-13T09:16:54.716Z,58.30
2018-06-13T09:19:23.158Z,58.30
2018-06-13T09:21:51.630Z,58.30
2018-06-13T09:24:20.052Z,58.30
2018-06-13T09:26:48.506Z,58.10
2018-06-13T09:29:17.050Z,57.90
2018-06-13T09:31:45.555Z,58.40
2018-06-13T09:34:14.017Z,57.80
2018-06-13T09:36:42.551Z,57.80
2018-06-13T09:39:11.008Z,57.90
2018-06-13T09:41:44.779Z,57.80
2018-06-13T09:44:13.359Z,57.70
2018-06-13T09:46:48.916Z,57.60
2018-06-13T09:49:10.320Z,57.60
2018-06-13T09:51:38.800Z,57.50
2018-06-13T09:54:07.251Z,57.50
2018-06-13T09:56:35.758Z,57.50
2018-06-13T09:59:20.468Z,57.30
2018-06-13T10:01:55.080Z,57.40
2018-06-13T10:04:23.599Z,57.60
2018-06-13T10:06:52.236Z,57.80
2018-06-13T10:09:20.704Z,57.70
2018-06-13T10:11:49.186Z,57.60
2018-06-13T10:14:17.781Z,57.50
2018-06-13T10:16:46.259Z,57.30
2018-06-13T10:19:14.781Z,57.10
2018-06-13T10:21:43.229Z,57.50
2018-06-13T10:24:11.705Z,56.90
2018-06-13T10:26:40.203Z,57.00
2018-06-13T10:29:08.680Z,57.10
2018-06-13T10:31:37.170Z,57.10
2018-06-13T10:34:05.613Z,57.20
2018-06-13T10:36:34.127Z,57.30
2018-06-13T10:39:02.594Z,57.20
2018-06-13T10:41:31.134Z,57.20
2018-06-13T10:43:59.584Z,57.00
2018-06-13T10:46:28.203Z,57.00
2018-06-13T10:48:56.618Z,57.10
2018-06-13T10:51:25.103Z,57.00
2018-06-13T10:53:53.612Z,57.10
2018-06-13T10:56:22.177Z,57.10
2018-06-13T10:58:50.615Z,57.20
2018-06-13T11:01:19.088Z,57.00
2018-06-13T11:03:47.568Z,56.80
2018-06-13T11:06:16.055Z,56.80
2018-06-13T11:08:44.572Z,56.70
2018-06-13T11:11:13.059Z,56.60
2018-06-13T11:13:41.542Z,56.50
2018-06-13T11:16:09.959Z,56.30
2018-06-13T11:18:38.422Z,56.30
2018-06-13T11:21:06.929Z,56.20
2018-06-13T11:23:35.378Z,56.20
2018-06-13T11:26:03.967Z,56.50
2018-06-13T11:28:32.431Z,56.70
2018-06-13T11:31:00.892Z,56.90
2018-06-13T11:33:29.425Z,57.00
2018-06-13T11:38:26.090Z,57.00
2018-06-13T11:40:54.528Z,57.00
2018-06-13T11:43:23.052Z,56.90
2018-06-13T11:45:51.498Z,56.90
2018-06-13T11:48:19.966Z,56.80
2018-06-13T11:50:48.451Z,56.70
2018-06-13T11:53:17.106Z,56.70
2018-06-13T11:58:13.889Z,56.60
2018-06-13T12:00:42.367Z,56.70
2018-06-13T12:03:10.827Z,56.70
2018-06-13T12:05:39.347Z,56.70
2018-06-13T12:08:07.802Z,56.70
2018-06-13T12:10:36.261Z,56.70
2018-06-13T12:13:04.912Z,56.80
2018-06-13T12:15:33.393Z,56.80
2018-06-13T12:18:01.843Z,56.90
2018-06-13T12:20:30.281Z,56.90
2018-06-13T12:22:58.894Z,56.90
2018-06-13T12:25:27.364Z,56.90
2018-06-13T12:27:55.942Z,57.00
2018-06-13T12:30:25.307Z,56.90
2018-06-13T12:32:54.050Z,56.90
2018-06-13T12:35:22.519Z,56.90
2018-06-13T12:37:51.037Z,56.80
2018-06-13T12:40:19.511Z,56.80
2018-06-13T12:42:47.958Z,56.70
2018-06-13T12:45:16.458Z,56.60
2018-06-13T12:47:44.954Z,56.40
2018-06-13T12:50:13.506Z,56.40
2018-06-13T12:52:42.070Z,56.30
2018-06-13T12:55:10.543Z,56.20
2018-06-13T12:57:43.448Z,56.10
2018-06-13T13:00:12.571Z,56.10
2018-06-13T13:02:41.035Z,56.00
2018-06-13T13:05:10.670Z,56.00
2018-06-13T13:07:39.194Z,56.00
2018-06-13T13:10:08.367Z,55.90
2018-06-13T13:12:36.847Z,55.80
2018-06-13T13:15:05.661Z,55.80
2018-06-13T13:17:34.165Z,55.80
2018-06-13T13:20:02.904Z,55.70
2018-06-13T13:22:31.352Z,55.60
2018-06-13T13:25:00.245Z,55.50
2018-06-13T13:27:28.828Z,55.50
2018-06-13T13:29:57.468Z,55.50
2018-06-13T13:32:29.338Z,55.40
2018-06-13T13:34:58.444Z,55.20
2018-06-13T13:37:26.975Z,55.10
2018-06-13T13:39:55.531Z,55.00
2018-06-13T13:42:24.084Z,54.80
2018-06-13T13:44:52.592Z,54.80
2018-06-13T13:47:21.136Z,54.80
2018-06-13T13:49:49.646Z,54.70
2018-06-13T13:52:18.175Z,54.60
2018-06-13T13:54:47.004Z,54.50
2018-06-13T13:57:15.525Z,54.50
2018-06-13T13:59:44.006Z,54.40
2018-06-13T14:02:12.593Z,55.00
2018-06-13T14:04:41.212Z,54.40
2018-06-13T14:07:09.810Z,54.40
2018-06-13T14:09:38.356Z,54.00
2018-06-13T14:12:07.077Z,54.10
2018-06-13T14:14:35.726Z,54.00
2018-06-13T14:17:04.391Z,54.00
2018-06-13T14:19:36.658Z,54.00
2018-06-13T14:22:05.260Z,54.00
2018-06-13T14:24:34.786Z,53.90
2018-06-13T14:27:03.372Z,53.80
2018-06-13T14:29:31.903Z,53.90
2018-06-13T14:32:02.439Z,53.70
2018-06-13T14:34:34.029Z,53.40
2018-06-13T14:37:02.587Z,53.20
2018-06-13T14:39:31.693Z,53.10
2018-06-13T14:42:00.223Z,53.50
2018-06-13T14:44:31.499Z,52.90
2018-06-13T14:47:00.077Z,52.40
2018-06-13T14:49:28.541Z,52.30
2018-06-13T14:51:58.261Z,52.40
2018-06-13T14:54:26.990Z,52.40
2018-06-13T14:56:55.579Z,52.30
2018-06-13T14:59:24.076Z,52.20
2018-06-13T15:01:52.687Z,52.20
2018-06-13T15:04:26.363Z,52.20
2018-06-13T15:07:00.502Z,52.10
2018-06-13T15:09:29.033Z,52.00
2018-06-13T15:11:57.465Z,52.10
2018-06-13T15:14:25.960Z,52.20
2018-06-13T15:16:54.407Z,52.40
2018-06-13T15:19:22.898Z,52.50
2018-06-13T15:21:53.241Z,52.40
2018-06-13T15:24:23.641Z,52.50
2018-06-13T15:26:58.134Z,52.50
2018-06-13T15:29:29.809Z,52.50
2018-06-13T15:31:58.281Z,52.50
2018-06-13T15:34:27.013Z,52.40
2018-06-13T15:36:55.674Z,52.40
2018-06-13T15:39:25.724Z,53.00
2018-06-13T15:41:54.259Z,52.40
2018-06-13T15:46:52.109Z,52.30
2018-06-13T15:49:20.634Z,52.40
2018-06-13T15:51:49.140Z,52.30
2018-06-13T15:54:19.636Z,52.40
2018-06-13T15:56:48.182Z,52.40
2018-06-13T15:59:17.718Z,52.50
2018-06-13T16:01:48.493Z,52.40
2018-06-13T16:04:17.153Z,52.40
2018-06-13T16:06:45.714Z,52.30
2018-06-13T16:09:14.171Z,52.40
2018-06-13T16:11:42.716Z,52.50
2018-06-13T16:14:11.280Z,52.60
2018-06-13T16:16:39.800Z,52.60
2018-06-13T16:19:08.291Z,52.50
2018-06-13T16:21:36.814Z,52.50
2018-06-13T16:24:05.302Z,52.50
2018-06-13T16:26:33.851Z,52.50
2018-06-13T16:29:02.505Z,52.50
2018-06-13T16:31:31.637Z,52.50
2018-06-13T16:34:00.477Z,52.40
2018-06-13T16:36:28.958Z,52.40
2018-06-13T16:38:57.451Z,52.40
2018-06-13T16:41:26.699Z,52.30
2018-06-13T16:43:55.205Z,52.20
2018-06-13T16:46:23.671Z,52.20
2018-06-13T16:51:31.722Z,52.20
2018-06-13T16:54:13.594Z,52.10
2018-06-13T16:56:42.790Z,52.20
2018-06-13T16:59:11.280Z,52.20
2018-06-13T17:01:39.777Z,52.20
2018-06-13T17:04:08.397Z,52.20
2018-06-13T17:06:36.853Z,52.20
2018-06-13T17:09:06.960Z,52.20
2018-06-13T17:11:35.445Z,52.30
2018-06-13T17:14:04.003Z,52.20
2018-06-13T17:16:32.485Z,52.20
2018-06-13T17:19:00.944Z,52.20
2018-06-13T17:21:29.382Z,52.30
2018-06-13T17:23:57.838Z,52.30
2018-06-13T17:26:26.293Z,52.30
2018-06-13T17:28:54.827Z,52.20
2018-06-13T17:31:23.261Z,52.20
2018-06-13T17:33:51.712Z,52.30
2018-06-13T17:36:20.248Z,52.20
2018-06-13T17:38:48.731Z,52.30
2018-06-13T17:41:17.186Z,52.50
2018-06-13T17:43:45.654Z,52.30
2018-06-13T17:46:14.145Z,52.40
2018-06-13T17:48:42.597Z,52.30
2018-06-13T17:51:11.094Z,52.30
2018-06-13T17:56:07.715Z,52.40
2018-06-13T17:58:36.206Z,52.40
2018-06-13T18:01:04.738Z,52.50
2018-06-13T18:03:33.188Z,52.60
2018-06-13T18:06:01.667Z,52.70
2018-06-13T18:08:30.103Z,52.70
2018-06-13T18:10:58.665Z,52.60
2018-06-13T18:13:27.139Z,52.50
2018-06-13T18:15:55.610Z,52.50
2018-06-13T18:18:24.077Z,52.70
2018-06-13T18:20:52.554Z,52.60
2018-06-13T18:23:21.153Z,52.70
2018-06-13T18:25:49.598Z,52.60
2018-06-13T18:28:18.168Z,52.60
2018-06-13T18:30:46.728Z,52.70
2018-06-13T18:33:15.205Z,52.90
2018-06-13T18:35:43.750Z,53.00
2018-06-13T18:38:12.243Z,53.20
2018-06-13T18:40:40.704Z,53.20
2018-06-13T18:45:37.377Z,53.30
2018-06-13T18:48:05.865Z,53.30
2018-06-13T18:50:34.379Z,53.40
2018-06-13T18:53:02.872Z,53.40
2018-06-13T18:55:31.384Z,53.50
2018-06-13T18:57:59.914Z,53.60
2018-06-13T19:00:28.459Z,53.50
2018-06-13T19:02:56.978Z,53.60
2018-06-13T19:05:25.616Z,53.80
2018-06-13T19:07:54.126Z,53.80
2018-06-13T19:10:22.609Z,53.90
2018-06-13T19:12:51.105Z,53.90
2018-06-13T19:15:19.612Z,54.00
2018-06-13T19:17:48.083Z,54.00
2018-06-13T19:20:16.586Z,54.00
2018-06-13T19:22:45.010Z,54.00
2018-06-13T19:25:13.528Z,54.00
2018-06-13T19:27:41.975Z,54.00
2018-06-13T19:30:10.543Z,54.00
2018-06-13T19:32:39.055Z,54.10
2018-06-13T19:35:07.543Z,54.10
2018-06-13T19:37:35.983Z,54.10
2018-06-13T19:42:32.704Z,54.10
2018-06-13T19:45:01.185Z,54.10
2018-06-13T19:47:34.978Z,54.20
2018-06-13T19:50:03.553Z,54.20
2018-06-13T19:52:37.275Z,54.20
2018-06-13T19:55:10.875Z,54.20
2018-06-13T19:57:39.344Z,54.20
2018-06-13T20:00:07.846Z,54.20
2018-06-13T20:02:41.801Z,54.30
2018-06-13T20:05:15.494Z,54.30
2018-06-13T20:07:44.004Z,54.40
2018-06-13T20:10:12.500Z,54.40
2018-06-13T20:12:46.214Z,54.50
2018-06-13T20:15:20.177Z,54.50
2018-06-13T20:17:53.919Z,54.50
2018-06-13T20:20:22.416Z,54.50
2018-06-13T20:22:50.867Z,54.40
2018-06-13T20:25:25.174Z,54.40
2018-06-13T20:27:59.015Z,54.40
2018-06-13T20:30:32.946Z,54.40
2018-06-13T20:33:01.545Z,54.50
2018-06-13T20:35:29.971Z,54.50
2018-06-13T20:37:58.451Z,54.50
2018-06-13T20:40:27.015Z,54.50
2018-06-13T20:42:55.550Z,54.50
2018-06-13T20:45:24.004Z,54.50
2018-06-13T20:47:52.779Z,54.50
2018-06-13T20:50:21.292Z,54.50
2018-06-13T20:52:49.834Z,54.50
2018-06-13T20:55:18.332Z,54.60
2018-06-13T20:57:46.832Z,54.60
2018-06-13T21:00:15.361Z,54.60
2018-06-13T21:02:43.840Z,54.70
2018-06-13T21:05:12.338Z,54.80
2018-06-13T21:07:40.826Z,54.80
2018-06-13T21:10:09.298Z,54.90
2018-06-13T21:12:37.785Z,54.90
2018-06-13T21:15:06.271Z,54.80
2018-06-13T21:17:34.871Z,54.90
2018-06-13T21:20:03.503Z,54.70
2018-06-13T21:22:31.943Z,54.70
2018-06-13T21:25:00.420Z,54.70
2018-06-13T21:27:28.928Z,54.60
2018-06-13T21:29:57.478Z,54.50
2018-06-13T21:32:26.016Z,54.50
2018-06-13T21:34:54.589Z,54.50
2018-06-13T21:37:23.049Z,54.40
2018-06-13T21:39:51.486Z,54.50
2018-06-13T21:42:19.977Z,54.40
2018-06-13T21:44:48.419Z,54.40
2018-06-13T21:47:17.083Z,54.40
2018-06-13T21:49:45.515Z,54.40
2018-06-13T21:52:14.003Z,54.30
2018-06-13T21:54:42.531Z,54.30
2018-06-13T21:57:11.059Z,54.40
2018-06-13T21:59:39.547Z,54.40
2018-06-13T22:02:08.073Z,54.40
2018-06-13T22:04:36.576Z,54.40
2018-06-13T22:07:05.091Z,54.50
2018-06-13T22:09:33.622Z,54.60
2018-06-13T22:12:02.072Z,54.70
2018-06-13T22:14:30.596Z,54.60
2018-06-13T22:16:59.045Z,54.60
2018-06-13T22:19:27.609Z,54.60
2018-06-13T22:21:56.065Z,54.50
2018-06-13T22:24:24.602Z,54.60
2018-06-13T22:26:53.110Z,54.70
2018-06-13T22:29:21.652Z,54.60
2018-06-13T22:34:18.374Z,54.60
2018-06-13T22:36:47.197Z,54.60
2018-06-13T22:39:15.854Z,54.60
2018-06-13T22:41:44.428Z,54.60
2018-06-13T22:44:12.997Z,54.70
2018-06-13T22:46:41.535Z,54.70
2018-06-13T22:49:10.142Z,54.70
2018-06-13T22:51:38.767Z,54.70
2018-06-13T22:54:07.441Z,54.70
2018-06-13T22:56:35.957Z,54.70
2018-06-13T22:59:04.407Z,54.70
2018-06-13T23:01:33.060Z,54.70
2018-06-13T23:04:01.581Z,54.70
2018-06-13T23:06:30.072Z,54.80
2018-06-13T23:08:58.636Z,54.80
2018-06-13T23:11:27.238Z,54.80
2018-06-13T23:13:55.689Z,54.90
2018-06-13T23:16:24.275Z,54.90
2018-06-13T23:18:52.785Z,54.90
2018-06-13T23:21:21.273Z,55.00
2018-06-13T23:23:49.882Z,55.00
2018-06-13T23:26:18.396Z,55.10
2018-06-13T23:28:47.065Z,55.10
2018-06-13T23:31:15.611Z,55.10
2018-06-13T23:33:44.202Z,55.20
2018-06-13T23:36:12.758Z,55.70
2018-06-13T23:38:41.320Z,55.20
2018-06-13T23:41:09.825Z,55.20
2018-06-13T23:43:38.362Z,55.20
2018-06-13T23:46:06.901Z,55.20
2018-06-13T23:48:35.471Z,55.20
2018-06-13T23:51:04.026Z,55.30
2018-06-13T23:53:32.496Z,55.30
2018-06-13T23:56:00.967Z,55.30
2018-06-13T23:58:29.453Z,55.30
